Time;durP1;ratioP1;P1;durP2;ratioP2;P2;SDS_P1;SDS_P2;PMS_P1;PMS_P2;Temp;Humidity;BMP_temperature;BMP_pressure;BME280_temperature;BME280_humidity;BME280_pressure;Samples;Min_cycle;Max_cycle;Signal;HPM_P1;HPM_P2
2021/11/24 00:00:49;;;;;;;70.55;45.92;;;;;;;3.33;80.55;95177.14;1604822;87;21064;-55
2021/11/24 00:03:17;;;;;;;80.40;46.68;;;;;;;3.33;80.57;95175.78;1603017;88;21583;-58
2021/11/24 00:05:44;;;;;;;106.03;52.93;;;;;;;3.38;80.73;95180.25;1601677;87;21152;-55
2021/11/24 00:08:10;;;;;;;133.72;59.85;;;;;;;3.41;80.19;95181.42;1609661;88;21055;-56
2021/11/24 00:10:38;;;;;;;93.62;48.52;;;;;;;3.35;80.22;95179.68;1618344;88;21001;-58
2021/11/24 00:13:05;;;;;;;98.20;54.13;;;;;;;3.32;80.22;95185.91;1606998;87;21123;-55
2021/11/24 00:15:33;;;;;;;102.95;51.83;;;;;;;3.31;80.38;95181.63;1624099;88;21047;-55
2021/11/24 00:17:59;;;;;;;102.87;55.43;;;;;;;3.33;80.37;95188.81;1602818;88;21559;-55
2021/11/24 00:20:27;;;;;;;97.02;53.68;;;;;;;3.31;80.41;95190.36;1601586;87;21095;-56
2021/11/24 00:22:53;;;;;;;105.80;54.75;;;;;;;3.31;80.46;95184.92;1607860;87;21064;-55
2021/11/24 00:25:20;;;;;;;161.57;69.97;;;;;;;3.31;80.48;95195.80;1613820;87;21063;-56
2021/11/24 00:27:47;;;;;;;122.28;59.18;;;;;;;3.31;80.33;95193.08;1602520;88;21607;-56
2021/11/24 00:30:14;;;;;;;142.53;62.60;;;;;;;3.33;80.72;95196.17;1604503;88;21824;-56
2021/11/24 00:32:41;;;;;;;128.50;61.08;;;;;;;3.40;80.87;95193.47;1603191;87;21172;-57
2021/11/24 00:35:10;;;;;;;93.80;50.50;;;;;;;3.48;80.51;95195.20;1617179;87;21598;-56
2021/11/24 00:37:36;;;;;;;101.18;56.15;;;;;;;3.49;80.41;95199.47;1619653;88;21440;-56
2021/11/24 00:40:05;;;;;;;98.37;57.38;;;;;;;3.47;80.02;95200.25;1579601;88;21056;-56
2021/11/24 00:42:33;;;;;;;97.40;52.78;;;;;;;3.37;79.90;95194.23;1616973;87;22074;-56
2021/11/24 00:45:00;;;;;;;99.60;57.60;;;;;;;3.28;79.86;95203.38;1612213;88;21436;-56
2021/11/24 00:47:26;;;;;;;95.12;54.25;;;;;;;3.16;79.98;95214.06;1608914;87;20955;-56
2021/11/24 00:49:53;;;;;;;96.70;56.68;;;;;;;3.10;80.22;95199.31;1554747;89;21103;-56
2021/11/24 00:52:20;;;;;;;104.53;58.30;;;;;;;3.05;80.42;95201.64;1557633;89;21156;-61
2021/11/24 00:54:48;;;;;;;113.17;60.75;;;;;;;3.02;80.67;95199.70;1597106;89;21117;-57
2021/11/24 00:57:15;;;;;;;99.20;54.55;;;;;;;3.04;81.19;95204.16;1581038;89;21040;-56
2021/11/24 00:59:41;;;;;;;97.97;51.75;;;;;;;3.08;81.02;95200.86;1599018;89;21040;-56
2021/11/24 01:02:08;;;;;;;98.92;52.17;;;;;;;3.11;81.12;95198.15;1598936;89;21024;-55
2021/11/24 01:04:35;;;;;;;103.17;54.13;;;;;;;3.19;81.28;95192.10;1598583;89;21001;-55
2021/11/24 01:07:02;;;;;;;97.40;52.90;;;;;;;3.28;81.20;95199.30;1598790;89;21091;-56
2021/11/24 01:09:29;;;;;;;94.87;53.80;;;;;;;3.32;80.98;95200.86;1598823;89;21000;-54
2021/11/24 01:11:55;;;;;;;96.53;52.23;;;;;;;3.35;80.85;95199.28;1598013;89;21480;-57
2021/11/24 01:14:22;;;;;;;91.82;51.70;;;;;;;3.38;80.72;95198.52;1598671;89;21035;-55
2021/11/24 01:16:49;;;;;;;98.78;56.10;;;;;;;3.36;80.40;95200.83;1596514;89;21047;-55
2021/11/24 01:19:15;;;;;;;87.53;49.85;;;;;;;3.28;80.21;95198.70;1596882;89;21092;-55
2021/11/24 01:21:42;;;;;;;91.15;52.85;;;;;;;3.25;80.52;95195.41;1598810;89;21043;-55
2021/11/24 01:24:10;;;;;;;99.77;56.95;;;;;;;3.30;80.57;95203.19;1598794;87;21050;-59
2021/11/24 01:26:36;;;;;;;98.80;58.33;;;;;;;3.31;80.41;95199.87;1595318;89;22004;-56
2021/11/24 01:29:03;;;;;;;99.92;61.80;;;;;;;3.27;80.24;95197.75;1595376;89;21153;-55
2021/11/24 01:31:29;;;;;;;120.55;64.47;;;;;;;3.17;80.25;95202.59;1597315;89;21225;-55
2021/11/24 01:33:56;;;;;;;108.85;58.70;;;;;;;3.08;80.40;95207.66;1592583;88;21028;-56
2021/11/24 01:36:22;;;;;;;107.40;59.20;;;;;;;3.04;80.62;95210.95;1594896;90;21137;-55
2021/11/24 01:38:50;;;;;;;110.48;62.33;;;;;;;3.00;80.69;95210.16;1592612;89;21448;-56
2021/11/24 01:41:17;;;;;;;119.57;66.67;;;;;;;2.98;80.86;95209.77;1603249;88;21044;-56
2021/11/24 01:43:43;;;;;;;122.17;67.50;;;;;;;2.95;81.11;95203.75;1600842;88;21127;-56
2021/11/24 01:46:10;;;;;;;118.25;66.17;;;;;;;2.96;81.38;95210.73;1593684;89;21480;-56
2021/11/24 01:48:37;;;;;;;103.35;60.08;;;;;;;2.93;81.24;95209.59;1598753;88;21568;-57
2021/11/24 01:51:04;;;;;;;125.33;69.45;;;;;;;2.91;81.37;95207.05;1600214;88;21198;-55
2021/11/24 01:53:30;;;;;;;147.80;74.17;;;;;;;2.88;81.30;95207.23;1605359;88;21079;-55
2021/11/24 01:56:00;;;;;;;130.12;67.72;;;;;;;2.84;81.35;95210.54;1600421;88;21630;-56
2021/11/24 01:58:26;;;;;;;142.57;75.87;;;;;;;2.83;81.48;95210.94;1591382;89;21484;-55
2021/11/24 02:00:53;;;;;;;121.17;68.10;;;;;;;2.80;81.56;95217.13;1594962;89;21088;-56
2021/11/24 02:03:20;;;;;;;103.83;60.55;;;;;;;2.80;81.69;95212.48;1593554;89;21753;-56
2021/11/24 02:05:47;;;;;;;114.10;62.98;;;;;;;2.78;81.70;95214.02;1593579;88;21107;-55
2021/11/24 02:08:14;;;;;;;105.35;58.02;;;;;;;2.76;81.80;95208.20;1601055;88;21150;-56
2021/11/24 02:10:41;;;;;;;110.52;61.20;;;;;;;2.79;81.88;95196.55;1592191;88;21123;-56
2021/11/24 02:13:08;;;;;;;117.30;64.25;;;;;;;2.82;81.78;95203.92;1593539;89;21011;-54
2021/11/24 02:15:35;;;;;;;105.27;63.05;;;;;;;2.85;81.83;95209.38;1597163;88;21469;-56
2021/11/24 02:18:05;;;;;;;117.95;66.72;;;;;;;2.91;82.12;95201.63;1593093;88;21067;-56
2021/11/24 02:20:41;;;;;;;122.65;65.72;;;;;;;2.99;82.13;95207.25;1573965;90;21228;-55
2021/11/24 02:23:09;;;;;;;125.30;66.57;;;;;;;3.01;81.75;95207.63;1596277;89;21012;-55
2021/11/24 02:25:37;;;;;;;122.10;64.15;;;;;;;2.97;81.72;95206.86;1585212;89;21046;-63
2021/11/24 02:28:05;;;;;;;124.78;66.22;;;;;;;3.01;82.10;95202.98;1596373;89;21166;-57
2021/11/24 02:30:31;;;;;;;71.57;45.00;;;;;;;3.15;82.00;95219.88;1597242;88;21648;-53
2021/11/24 02:32:58;;;;;;;80.95;48.33;;;;;;;3.22;81.43;95215.81;1599060;88;21185;-55
2021/11/24 02:35:25;;;;;;;83.47;46.85;;;;;;;3.18;81.10;95213.09;1597082;89;21086;-55
2021/11/24 02:37:52;;;;;;;80.25;48.35;;;;;;;3.13;81.07;95212.69;1594463;88;21101;-54
2021/11/24 02:40:19;;;;;;;73.97;45.12;;;;;;;3.14;81.47;95209.59;1598033;88;21084;-55
2021/11/24 02:42:46;;;;;;;78.42;46.70;;;;;;;3.22;81.62;95217.17;1595403;89;21461;-56
2021/11/24 02:45:13;;;;;;;88.33;50.90;;;;;;;3.29;81.10;95217.16;1580163;89;21157;-54
2021/11/24 02:47:40;;;;;;;87.55;53.15;;;;;;;3.37;81.30;95214.62;1595282;88;21142;-55
2021/11/24 02:50:07;;;;;;;94.25;53.92;;;;;;;3.49;81.04;95217.14;1589641;89;21103;-55
2021/11/24 02:52:34;;;;;;;94.05;57.08;;;;;;;3.54;80.50;95218.09;1570249;90;21030;-54
2021/11/24 02:55:04;;;;;;;98.17;56.80;;;;;;;3.55;80.28;95212.84;1633615;87;21078;-55
2021/11/24 02:57:40;;;;;;;91.20;52.93;;;;;;;3.62;80.39;95207.42;1637365;86;21149;-55
2021/11/24 03:00:21;;;;;;;73.75;42.48;;;;;;;3.73;79.92;95208.16;1626792;87;20947;-56
2021/11/24 03:02:50;;;;;;;55.23;33.75;;;;;;;3.67;79.38;95212.45;1619662;88;21041;-55
2021/11/24 03:05:23;;;;;;;54.45;34.88;;;;;;;3.60;79.15;95215.20;1615229;88;21531;-55
2021/11/24 03:07:50;;;;;;;60.40;35.98;;;;;;;3.56;79.65;95215.80;1620122;87;20967;-55
2021/11/24 03:10:18;;;;;;;50.17;32.48;;;;;;;3.63;79.60;95214.41;1593306;88;21172;-55
2021/11/24 03:12:45;;;;;;;49.33;31.70;;;;;;;3.68;79.26;95214.00;1608423;87;21587;-54
2021/11/24 03:15:12;;;;;;;60.67;37.98;;;;;;;3.71;79.35;95215.17;1606634;87;21118;-54
2021/11/24 03:17:39;;;;;;;54.08;34.70;;;;;;;3.78;79.36;95216.51;1601184;88;21094;-55
2021/11/24 03:20:08;;;;;;;42.38;29.05;;;;;;;3.82;78.90;95209.90;1584988;88;20995;-55
2021/11/24 03:22:35;;;;;;;39.20;25.82;;;;;;;3.83;78.59;95212.05;1612930;88;21652;-56
2021/11/24 03:25:04;;;;;;;42.58;29.60;;;;;;;3.83;78.36;95216.89;1616545;88;21503;-55
2021/11/24 03:27:34;;;;;;;50.43;32.00;;;;;;;3.83;78.24;95213.41;1610739;87;21476;-55
2021/11/24 03:30:04;;;;;;;64.55;39.67;;;;;;;3.79;78.10;95206.61;1557902;90;21547;-55
2021/11/24 03:32:32;;;;;;;61.40;37.35;;;;;;;3.73;78.28;95212.84;1586642;88;21535;-55
2021/11/24 03:35:00;;;;;;;57.80;32.80;;;;;;;3.71;78.39;95214.58;1621665;87;21159;-55
2021/11/24 03:37:26;;;;;;;65.85;38.25;;;;;;;3.70;78.25;95217.11;1616001;88;21424;-55
2021/11/24 03:39:53;;;;;;;72.47;42.50;;;;;;;3.66;78.23;95212.27;1611561;87;21011;-55
2021/11/24 03:42:20;;;;;;;67.75;40.08;;;;;;;3.62;78.04;95218.30;1607915;87;21174;-54
2021/11/24 03:44:46;;;;;;;76.65;44.70;;;;;;;3.60;78.23;95209.76;1603456;87;20992;-55
2021/11/24 03:47:13;;;;;;;67.25;42.65;;;;;;;3.63;78.19;95208.97;1610449;87;21201;-57
2021/11/24 03:49:40;;;;;;;76.02;46.75;;;;;;;3.67;78.21;95221.97;1623429;87;21113;-55
2021/11/24 03:52:08;;;;;;;79.65;47.20;;;;;;;3.66;78.04;95214.98;1607280;88;21151;-55
2021/11/24 03:54:34;;;;;;;81.45;47.15;;;;;;;3.63;78.12;95211.69;1611864;88;21242;-55
2021/11/24 03:57:02;;;;;;;77.25;47.95;;;;;;;3.64;78.23;95217.32;1583852;88;21062;-55
2021/11/24 03:59:29;;;;;;;79.27;47.38;;;;;;;3.67;78.11;95215.17;1620433;88;21163;-56
2021/11/24 04:01:55;;;;;;;78.55;46.60;;;;;;;3.71;78.17;95220.62;1627584;87;21127;-55
2021/11/24 04:04:22;;;;;;;100.60;52.98;;;;;;;3.72;77.87;95220.20;1604009;87;21593;-55
2021/11/24 04:06:48;;;;;;;91.78;52.83;;;;;;;3.68;77.71;95219.45;1624641;87;21050;-55
2021/11/24 04:09:15;;;;;;;86.72;53.13;;;;;;;3.69;78.13;95222.95;1623059;88;21035;-55
2021/11/24 04:11:41;;;;;;;89.32;55.23;;;;;;;3.72;77.94;95223.53;1623466;87;21796;-57
2021/11/24 04:14:08;;;;;;;64.75;37.93;;;;;;;3.70;77.69;95225.27;1597973;88;20994;-55
2021/11/24 04:16:36;;;;;;;68.62;37.63;;;;;;;3.66;77.76;95223.14;1626056;87;21015;-56
2021/11/24 04:19:02;;;;;;;56.45;36.03;;;;;;;3.58;77.54;95227.05;1624806;87;21487;-57
2021/11/24 04:21:30;;;;;;;60.63;36.77;;;;;;;3.48;77.70;95225.11;1626780;87;20999;-55
2021/11/24 04:23:58;;;;;;;65.50;38.55;;;;;;;3.47;78.07;95219.28;1627134;87;21206;-56
2021/11/24 04:26:25;;;;;;;66.80;37.33;;;;;;;3.49;78.27;95223.18;1624790;87;21500;-56
2021/11/24 04:28:52;;;;;;;61.05;38.65;;;;;;;3.55;78.27;95222.97;1623321;87;21034;-56
2021/11/24 04:31:18;;;;;;;60.43;34.98;;;;;;;3.61;78.24;95226.27;1635488;87;22249;-54
2021/11/24 04:33:45;;;;;;;74.30;46.75;;;;;;;3.67;77.92;95224.69;1622505;87;20995;-55
2021/11/24 04:36:12;;;;;;;133.57;71.25;;;;;;;3.60;77.59;95224.72;1642008;87;21145;-55
2021/11/24 04:38:39;;;;;;;137.82;79.95;;;;;;;3.48;77.42;95229.00;1629152;86;21196;-54
2021/11/24 04:41:07;;;;;;;125.33;70.90;;;;;;;3.36;77.80;95228.02;1636060;87;21073;-55
2021/11/24 04:43:39;;;;;;;95.53;51.53;;;;;;;3.36;77.99;95222.59;1636071;87;21074;-56
2021/11/24 04:46:02;;;;;;;129.95;70.62;;;;;;;3.33;78.09;95221.44;1631871;86;21101;-55
2021/11/24 04:48:29;;;;;;;113.62;64.27;;;;;;;3.29;78.13;95230.75;1634557;87;21144;-55
2021/11/24 04:50:56;;;;;;;115.50;66.20;;;;;;;3.26;78.12;95228.81;1630056;87;21032;-55
2021/11/24 04:53:23;;;;;;;99.80;57.43;;;;;;;3.17;78.11;95230.56;1615461;87;21538;-55
2021/11/24 04:55:50;;;;;;;85.25;49.65;;;;;;;3.10;78.13;95231.93;1631159;86;21095;-55
2021/11/24 04:58:17;;;;;;;80.07;47.43;;;;;;;3.01;78.14;95232.88;1631965;86;21209;-55
2021/11/24 05:00:44;;;;;;;75.70;48.75;;;;;;;3.00;78.42;95233.25;1632594;86;21227;-55
2021/11/24 05:03:11;;;;;;;97.90;57.05;;;;;;;2.97;78.30;95231.31;1629085;86;21058;-56
2021/11/24 05:05:37;;;;;;;77.17;47.58;;;;;;;2.86;78.40;95231.90;1633021;86;21471;-56
2021/11/24 05:08:06;;;;;;;79.55;46.08;;;;;;;2.86;78.77;95229.18;1630746;86;21035;-55
2021/11/24 05:10:33;;;;;;;57.83;34.90;;;;;;;2.82;78.82;95235.95;1640958;87;21133;-57
2021/11/24 05:13:00;;;;;;;70.35;38.73;;;;;;;2.85;78.96;95239.25;1637682;86;21087;-55
2021/11/24 05:15:32;;;;;;;69.62;40.73;;;;;;;2.96;79.13;95228.41;1640059;87;20968;-56
2021/11/24 05:18:02;;;;;;;78.25;44.93;;;;;;;3.10;79.19;95240.08;1637798;87;21454;-58
2021/11/24 05:20:31;;;;;;;91.25;50.05;;;;;;;3.23;78.79;95238.52;1635146;86;20982;-56
2021/11/24 05:23:00;;;;;;;83.27;46.95;;;;;;;3.33;78.54;95234.24;1616401;87;20979;-57
2021/11/24 05:25:27;;;;;;;100.20;57.90;;;;;;;3.39;78.33;95235.42;1638334;87;21146;-56
2021/11/24 05:27:54;;;;;;;158.00;77.27;;;;;;;3.33;78.08;95237.75;1638671;86;20984;-57
2021/11/24 05:30:22;;;;;;;151.53;77.65;;;;;;;3.18;78.15;95238.12;1633960;86;21641;-57
2021/11/24 05:32:49;;;;;;;123.00;70.75;;;;;;;3.09;78.60;95240.45;1621384;87;21042;-56
2021/11/24 05:35:20;;;;;;;149.00;79.67;;;;;;;3.03;78.86;95246.85;1623869;87;20987;-57
2021/11/24 05:37:45;;;;;;;134.70;74.50;;;;;;;2.96;79.06;95239.27;1619426;88;21185;-58
2021/11/24 05:40:12;;;;;;;120.10;65.90;;;;;;;2.93;79.46;95242.77;1611237;88;21020;-58
2021/11/24 05:42:46;;;;;;;116.53;63.48;;;;;;;2.91;79.43;95256.72;1622897;87;21043;-57
2021/11/24 05:45:26;;;;;;;113.30;57.98;;;;;;;2.94;79.29;95256.55;1620794;88;20992;-57
2021/11/24 05:47:54;;;;;;;121.37;62.10;;;;;;;2.90;79.03;95250.34;1615817;87;21022;-55
2021/11/24 05:50:18;;;;;;;110.28;58.70;;;;;;;2.83;79.06;95254.41;1619499;87;21600;-57
2021/11/24 05:52:45;;;;;;;122.22;63.90;;;;;;;2.82;79.54;95263.69;1619038;87;21541;-56
2021/11/24 05:55:12;;;;;;;106.30;55.88;;;;;;;2.83;79.20;95265.28;1595283;88;21039;-58
2021/11/24 05:57:41;;;;;;;133.60;66.05;;;;;;;2.76;79.20;95269.31;1595671;88;21071;-56
2021/11/24 06:00:09;;;;;;;128.10;60.15;;;;;;;2.68;78.96;95269.11;1620656;87;21451;-57
2021/11/24 06:02:40;;;;;;;137.18;73.47;;;;;;;2.64;79.23;95268.30;1626146;87;21174;-58
2021/11/24 06:05:09;;;;;;;120.77;64.20;;;;;;;2.64;79.40;95268.30;1626869;88;21042;-57
2021/11/24 06:07:36;;;;;;;115.72;61.30;;;;;;;2.61;79.06;95270.44;1627257;87;21026;-57
2021/11/24 06:10:05;;;;;;;99.50;59.70;;;;;;;2.60;79.39;95268.87;1631494;87;21023;-59
2021/11/24 06:12:32;;;;;;;91.05;56.95;;;;;;;2.59;79.43;95276.27;1625151;87;21046;-57
2021/11/24 06:15:00;;;;;;;112.90;67.35;;;;;;;2.55;79.36;95276.05;1630155;86;21172;-60
2021/11/24 06:17:28;;;;;;;98.15;59.18;;;;;;;2.58;79.60;95272.56;1622509;86;21042;-57
2021/11/24 06:19:54;;;;;;;79.03;43.83;;;;;;;2.63;79.32;95280.33;1619217;87;21039;-57
2021/11/24 06:22:21;;;;;;;64.97;39.08;;;;;;;2.56;79.02;95283.03;1619605;87;21012;-58
2021/11/24 06:24:49;;;;;;;82.75;48.70;;;;;;;2.46;78.96;95279.69;1622589;88;20995;-57
2021/11/24 06:27:16;;;;;;;79.12;49.23;;;;;;;2.36;79.23;95279.08;1615484;88;21176;-60
2021/11/24 06:29:43;;;;;;;75.57;48.87;;;;;;;2.36;79.50;95281.80;1609369;87;21116;-58
2021/11/24 06:32:11;;;;;;;56.98;38.28;;;;;;;2.41;80.00;95282.20;1629354;87;21059;-58
2021/11/24 06:34:38;;;;;;;71.85;44.65;;;;;;;2.44;79.60;95289.59;1635251;86;21062;-57
2021/11/24 06:37:04;;;;;;;72.55;42.17;;;;;;;2.41;79.46;95296.34;1630011;86;21138;-57
2021/11/24 06:39:31;;;;;;;91.53;52.60;;;;;;;2.32;79.38;95299.41;1647574;86;21152;-57
2021/11/24 06:41:59;;;;;;;107.67;53.25;;;;;;;2.25;79.91;95298.03;1612624;86;21094;-61
2021/11/24 06:44:26;;;;;;;88.07;48.33;;;;;;;2.24;79.72;95307.34;1648578;86;21031;-59
2021/11/24 06:46:54;;;;;;;101.12;61.13;;;;;;;2.18;79.72;95304.00;1579845;87;21181;-59
2021/11/24 06:49:20;;;;;;;111.00;55.00;;;;;;;2.10;79.55;95311.92;1634885;86;21045;-59
2021/11/24 06:51:47;;;;;;;129.78;71.82;;;;;;;2.02;79.48;95311.09;1617449;86;21079;-57
2021/11/24 06:54:19;;;;;;;127.35;72.17;;;;;;;1.96;79.69;95315.30;1634240;87;21573;-58
2021/11/24 06:56:45;;;;;;;141.82;71.30;;;;;;;1.96;79.71;95313.19;1632889;87;21159;-64
2021/11/24 06:59:12;;;;;;;109.25;61.60;;;;;;;1.97;79.63;95316.09;1636680;86;21128;-57
2021/11/24 07:01:40;;;;;;;141.70;72.15;;;;;;;2.00;79.56;95318.05;1633192;87;21507;-57
2021/11/24 07:04:08;;;;;;;104.47;56.80;;;;;;;1.97;79.63;95316.09;1594773;87;21176;-58
2021/11/24 07:06:35;;;;;;;77.92;47.88;;;;;;;2.01;79.86;95323.11;1625507;86;21503;-60
2021/11/24 07:09:03;;;;;;;65.60;39.73;;;;;;;2.21;80.37;95324.39;1634841;86;21573;-58
2021/11/24 07:11:32;;;;;;;103.17;47.88;;;;;;;2.43;79.98;95317.11;1614776;87;21079;-66
2021/11/24 07:13:59;;;;;;;51.85;30.20;;;;;;;2.58;79.97;95325.52;1601218;87;21055;-60
2021/11/24 07:16:25;;;;;;;37.38;23.80;;;;;;;2.70;78.99;95329.26;1618396;84;21090;-60
2021/11/24 07:18:52;;;;;;;39.90;26.93;;;;;;;2.67;78.52;95325.36;1629945;86;21052;-62
2021/11/24 07:21:19;;;;;;;55.03;32.73;;;;;;;2.65;78.42;95326.92;1607861;86;21456;-60
2021/11/24 07:23:46;;;;;;;65.85;41.37;;;;;;;2.68;78.51;95320.72;1606925;86;21062;-59
2021/11/24 07:26:12;;;;;;;116.95;59.90;;;;;;;2.67;78.12;95328.08;1625568;86;21111;-65
2021/11/24 07:28:39;;;;;;;109.85;63.52;;;;;;;2.62;77.95;95323.59;1633230;86;21122;-62
2021/11/24 07:31:06;;;;;;;117.03;65.83;;;;;;;2.58;77.95;95328.23;1608097;87;21109;-61
2021/11/24 07:33:32;;;;;;;118.90;68.42;;;;;;;2.60;78.26;95326.70;1612806;86;21118;-59
2021/11/24 07:35:59;;;;;;;102.95;56.20;;;;;;;2.67;78.00;95331.39;1630059;86;21062;-60
2021/11/24 07:38:25;;;;;;;95.75;54.27;;;;;;;2.67;77.63;95332.75;1632897;87;21050;-61
2021/11/24 07:40:52;;;;;;;109.52;55.48;;;;;;;2.61;77.60;95333.69;1605071;86;21165;-60
2021/11/24 07:43:19;;;;;;;95.50;50.30;;;;;;;2.59;77.84;95325.71;1624703;86;21620;-60
2021/11/24 07:45:46;;;;;;;83.97;43.70;;;;;;;2.66;77.65;95334.67;1623675;86;22405;-60
2021/11/24 07:48:13;;;;;;;59.85;36.75;;;;;;;2.70;77.79;95331.38;1612022;86;20935;-61
2021/11/24 07:50:41;;;;;;;46.75;30.45;;;;;;;2.84;77.54;95332.03;1623640;86;21110;-58
2021/11/24 07:53:09;;;;;;;37.65;26.50;;;;;;;2.96;77.21;95333.02;1626430;86;21103;-62
2021/11/24 07:55:36;;;;;;;39.60;25.88;;;;;;;3.04;76.77;95340.05;1622400;86;21476;-61
2021/11/24 07:58:02;;;;;;;35.28;24.87;;;;;;;3.14;76.62;95336.56;1628080;86;21022;-65
2021/11/24 08:00:31;;;;;;;39.90;24.35;;;;;;;3.28;76.14;95340.67;1625118;86;21015;-55
2021/11/24 08:02:57;;;;;;;50.33;29.00;;;;;;;3.34;75.55;95345.34;1603097;88;21078;-66
2021/11/24 08:05:24;;;;;;;39.95;24.45;;;;;;;3.34;75.24;95341.84;1638927;85;21105;-64
2021/11/24 08:07:51;;;;;;;33.55;22.20;;;;;;;3.36;74.90;95342.22;1590241;86;21663;-62
2021/11/24 08:10:17;;;;;;;33.73;21.50;;;;;;;3.36;74.81;95338.14;1621806;86;21125;-65
2021/11/24 08:12:44;;;;;;;40.40;26.30;;;;;;;3.40;74.80;95343.03;1596924;86;21061;-68
2021/11/24 08:15:11;;;;;;;34.00;22.42;;;;;;;3.44;74.72;95342.45;1628538;86;21618;-67
2021/11/24 08:17:38;;;;;;;32.55;20.97;;;;;;;3.58;74.37;95336.42;1631541;86;21123;-62
2021/11/24 08:20:07;;;;;;;31.27;20.08;;;;;;;3.61;74.06;95340.52;1623346;85;21026;-60
2021/11/24 08:22:34;;;;;;;32.30;21.15;;;;;;;3.67;73.95;95339.55;1610934;87;21456;-61
2021/11/24 08:25:03;;;;;;;33.65;22.13;;;;;;;3.80;73.97;95340.12;1621557;87;21018;-65
2021/11/24 08:27:31;;;;;;;27.27;19.75;;;;;;;4.01;73.82;95336.03;1628450;86;21074;-63
2021/11/24 08:29:58;;;;;;;29.77;18.52;;;;;;;4.31;73.94;95324.13;1579312;87;21147;-64
2021/11/24 08:32:24;;;;;;;20.70;15.70;;;;;;;4.64;73.32;95330.42;1626020;86;21694;-62
2021/11/24 08:34:51;;;;;;;86.65;44.13;;;;;;;4.87;72.54;95320.41;1629177;86;21118;-61
2021/11/24 08:37:18;;;;;;;52.35;31.23;;;;;;;4.98;70.96;95320.55;1625584;86;22338;-64
2021/11/24 08:39:46;;;;;;;28.95;17.77;;;;;;;4.91;69.90;95319.23;1604351;87;21181;-62
2021/11/24 08:42:13;;;;;;;41.58;26.37;;;;;;;4.80;69.32;95315.76;1598654;87;21852;-64
2021/11/24 08:44:41;;;;;;;27.30;19.40;;;;;;;4.77;69.30;95308.98;1622432;87;20975;-62
2021/11/24 08:47:08;;;;;;;27.95;20.32;;;;;;;4.91;69.27;95311.63;1628894;86;21007;-64
2021/11/24 08:49:34;;;;;;;23.92;19.00;;;;;;;5.22;69.08;95305.23;1634334;85;21122;-68
2021/11/24 08:52:01;;;;;;;32.90;20.60;;;;;;;5.60;68.66;95299.52;1627515;86;21073;-62
2021/11/24 08:54:27;;;;;;;26.02;18.00;;;;;;;5.94;67.75;95304.53;1631777;86;21169;-68
2021/11/24 08:56:54;;;;;;;21.73;17.17;;;;;;;6.20;66.44;95302.52;1624152;87;20900;-64
2021/11/24 08:59:24;;;;;;;20.92;15.13;;;;;;;6.42;65.69;95301.11;1623362;87;22047;-65
2021/11/24 09:01:51;;;;;;;26.00;15.50;;;;;;;6.62;64.85;95302.84;1620222;87;21495;-61
2021/11/24 09:04:19;;;;;;;25.60;18.32;;;;;;;6.81;64.32;95296.75;1621381;86;21076;-62
2021/11/24 09:06:46;;;;;;;27.42;16.97;;;;;;;7.08;63.43;95300.91;1633739;86;21139;-65
2021/11/24 09:09:13;;;;;;;32.98;19.75;;;;;;;7.39;62.82;95294.99;1603016;87;21015;-61
2021/11/24 09:11:40;;;;;;;22.27;16.95;;;;;;;7.68;61.41;95297.50;1628958;86;21123;-59
2021/11/24 09:14:09;;;;;;;25.27;17.25;;;;;;;7.77;61.05;95290.88;1608823;87;21113;-63
2021/11/24 09:16:35;;;;;;;19.52;15.60;;;;;;;7.98;60.92;95289.95;1558183;90;21075;-62
2021/11/24 09:19:02;;;;;;;21.90;13.58;;;;;;;8.15;61.32;95288.09;1562557;89;21244;-64
2021/11/24 09:21:30;;;;;;;18.02;13.53;;;;;;;8.25;59.68;95284.43;1580626;88;21054;-65
2021/11/24 09:24:04;;;;;;;19.42;12.33;;;;;;;8.10;58.95;95282.48;1570320;90;21027;-63
2021/11/24 09:26:40;;;;;;;16.35;12.35;;;;;;;7.97;59.46;95279.40;1630469;86;21107;-62
2021/11/24 09:29:01;;;;;;;22.52;15.13;;;;;;;7.97;59.36;95282.92;1627552;87;21055;-62
2021/11/24 09:31:27;;;;;;;27.02;12.18;;;;;;;7.93;58.60;95280.06;1635574;86;21948;-65
2021/11/24 09:33:55;;;;;;;19.05;13.68;;;;;;;7.80;58.33;95277.72;1627137;87;21086;-63
2021/11/24 09:36:22;;;;;;;13.08;10.25;;;;;;;7.72;58.73;95270.83;1629029;86;21181;-61
2021/11/24 09:38:50;;;;;;;13.13;11.35;;;;;;;7.78;58.31;95265.83;1632018;86;21180;-64
2021/11/24 09:41:17;;;;;;;12.58;10.32;;;;;;;7.73;57.93;95267.66;1626717;86;21081;-61
2021/11/24 09:43:47;;;;;;;49.45;31.05;;;;;;;7.74;57.95;95267.83;1600675;88;21206;-65
2021/11/24 09:46:15;;;;;;;88.35;47.65;;;;;;;7.80;58.38;95270.88;1589015;87;21066;-63
2021/11/24 09:48:43;;;;;;;27.35;20.05;;;;;;;7.83;58.24;95271.41;1599326;88;21093;-61
2021/11/24 09:51:12;;;;;;;25.10;16.17;;;;;;;7.79;58.34;95264.64;1629146;87;21063;-64
2021/11/24 09:53:40;;;;;;;16.12;12.47;;;;;;;7.87;58.10;95266.06;1624671;86;21030;-63
2021/11/24 09:56:07;;;;;;;17.00;12.50;;;;;;;7.80;57.91;95259.92;1633147;86;22425;-66
2021/11/24 09:58:34;;;;;;;20.43;14.90;;;;;;;7.78;58.02;95259.56;1623600;87;21018;-65
2021/11/24 10:01:02;;;;;;;21.40;13.78;;;;;;;7.87;58.45;95259.20;1597031;86;21079;-63
2021/11/24 10:03:31;;;;;;;19.73;13.03;;;;;;;8.10;58.26;95255.08;1614864;86;21065;-62
2021/11/24 10:05:58;;;;;;;20.77;13.80;;;;;;;8.32;57.85;95250.03;1627067;87;21949;-63
2021/11/24 10:08:27;;;;;;;15.78;12.70;;;;;;;8.65;58.36;95249.00;1618162;87;21139;-61
2021/11/24 10:10:53;;;;;;;18.80;12.98;;;;;;;9.28;57.27;95241.56;1624206;86;21089;-67
2021/11/24 10:13:20;;;;;;;28.15;14.28;;;;;;;10.00;56.22;95239.59;1622889;85;22094;-63
2021/11/24 10:15:52;;;;;;;21.75;12.05;;;;;;;10.77;54.45;95241.70;1619949;86;21149;-63
2021/11/24 10:18:23;;;;;;;23.67;14.47;;;;;;;11.57;52.92;95235.77;1616595;86;21116;-65
2021/11/24 10:21:07;;;;;;;29.90;21.02;;;;;;;12.09;49.55;95235.42;1605333;86;21933;-61
2021/11/24 10:23:43;;;;;;;32.28;18.70;;;;;;;12.09;48.73;95225.02;1614759;86;21091;-64
2021/11/24 10:26:24;;;;;;;25.57;16.30;;;;;;;12.12;48.17;95227.64;1617212;86;21015;-61
2021/11/24 10:28:58;;;;;;;24.43;14.40;;;;;;;11.97;47.85;95223.83;1613866;85;21062;-72
2021/11/24 10:31:35;;;;;;;22.52;14.65;;;;;;;11.90;47.20;95228.80;1617089;86;21058;-65
2021/11/24 10:34:18;;;;;;;30.05;15.03;;;;;;;12.05;47.36;95225.75;1618396;86;22317;-68
2021/11/24 10:37:11;;;;;;;19.70;13.90;;;;;;;12.45;46.46;95222.59;1607272;86;22383;-65
2021/11/24 10:39:51;;;;;;;22.70;13.90;;;;;;;12.69;45.23;95216.95;1619547;85;21756;-64
2021/11/24 10:42:22;;;;;;;18.17;11.20;;;;;;;12.46;45.04;95212.47;1618967;86;21081;-64
2021/11/24 10:44:54;;;;;;;15.08;9.88;;;;;;;12.24;44.62;95213.05;1616756;86;21043;-67
2021/11/24 10:47:22;;;;;;;16.42;10.03;;;;;;;12.36;43.97;95212.25;1608405;86;21145;-64
2021/11/24 10:49:57;;;;;;;18.60;11.22;;;;;;;12.36;43.97;95212.25;1619805;86;20925;-64
2021/11/24 10:52:32;;;;;;;27.98;11.95;;;;;;;12.86;43.07;95213.41;1621831;86;22246;-64
2021/11/24 10:55:18;;;;;;;17.67;11.00;;;;;;;13.14;42.79;95212.38;1584757;86;21383;-68
2021/11/24 10:58:05;;;;;;;14.43;6.60;;;;;;;13.35;42.30;95210.96;1621029;86;21011;-62
2021/11/24 11:00:39;;;;;;;17.75;10.05;;;;;;;14.03;40.04;95202.90;1625696;86;21150;-60
2021/11/24 11:03:06;;;;;;;15.70;11.12;;;;;;;14.42;38.50;95202.06;1591131;86;21468;-63
2021/11/24 11:05:33;;;;;;;28.23;11.55;;;;;;;14.26;38.34;95209.27;1612467;86;22719;-66
2021/11/24 11:08:05;;;;;;;24.80;11.73;;;;;;;14.07;38.51;95202.13;1615178;86;21002;-67
2021/11/24 11:10:36;;;;;;;30.55;12.00;;;;;;;13.92;38.48;95195.64;1617395;86;21071;-64
2021/11/24 11:13:12;;;;;;;11.97;8.75;;;;;;;13.61;39.06;95196.33;1620310;86;21134;-62
2021/11/24 11:15:43;;;;;;;29.02;11.35;;;;;;;13.05;39.31;95187.47;1619540;86;21087;-65
2021/11/24 11:18:29;;;;;;;18.73;11.90;;;;;;;12.71;39.95;95188.91;1603266;87;22621;-60
2021/11/24 11:21:02;;;;;;;19.90;10.75;;;;;;;12.79;40.25;95188.20;1624774;87;22193;-61
2021/11/24 11:23:36;;;;;;;18.62;9.75;;;;;;;13.12;39.76;95186.56;1629790;86;21134;-64
2021/11/24 11:26:09;;;;;;;20.80;12.20;;;;;;;13.16;39.05;95183.08;1622400;87;21360;-61